Time;durP1;ratioP1;P1;durP2;ratioP2;P2;SDS_P1;SDS_P2;PMS_P1;PMS_P2;Temp;Humidity;BMP_temperature;BMP_pressure;BME280_temperature;BME280_humidity;BME280_pressure;Samples;Min_cycle;Max_cycle;Signal;HPM_P1;HPM_P2
2022/06/29 00:00:21;;;;;;;4.32;3.30;;;17.30;99.90;;;17.10;100.00;97133.50;4953587;28;20034;-39
2022/06/29 00:02:47;;;;;;;3.20;2.90;;;17.30;99.90;;;17.10;100.00;97129.97;4950602;28;20026;-40
2022/06/29 00:05:16;;;;;;;3.38;3.08;;;17.30;99.90;;;17.08;100.00;97131.91;4945916;28;20318;-39
2022/06/29 00:07:43;;;;;;;3.28;2.97;;;17.30;99.90;;;17.09;100.00;97133.63;4949560;28;20126;-40
2022/06/29 00:10:11;;;;;;;3.47;3.17;;;17.20;99.90;;;17.08;100.00;97129.22;4950414;28;20041;-40
2022/06/29 00:12:38;;;;;;;4.22;3.17;;;17.20;99.90;;;17.09;100.00;97122.97;4951468;28;20058;-40
2022/06/29 00:15:06;;;;;;;3.33;2.90;;;17.20;99.90;;;17.05;100.00;97113.44;4947496;28;20027;-41
2022/06/29 00:17:33;;;;;;;3.25;2.95;;;17.20;99.90;;;17.04;100.00;97109.09;4951986;28;20034;-40
2022/06/29 00:20:00;;;;;;;3.45;3.00;;;17.20;99.90;;;17.00;100.00;97104.94;4942380;28;20086;-39
2022/06/29 00:22:27;;;;;;;3.35;2.90;;;17.20;99.90;;;17.01;100.00;97102.16;4951914;28;20042;-40
2022/06/29 00:24:53;;;;;;;5.13;3.30;;;17.10;99.90;;;17.01;100.00;97106.63;4950936;28;20047;-39
2022/06/29 00:27:18;;;;;;;3.30;2.97;;;17.10;99.90;;;17.01;100.00;97095.97;4955594;28;20094;-39
2022/06/29 00:29:44;;;;;;;3.42;3.03;;;17.10;99.90;;;16.93;100.00;97089.34;4951372;28;20039;-39
2022/06/29 00:32:10;;;;;;;3.47;2.97;;;17.10;99.90;;;16.90;100.00;97089.53;4953960;28;20035;-40
2022/06/29 00:34:36;;;;;;;3.30;2.88;;;17.10;99.90;;;16.86;100.00;97081.88;4944075;28;20530;-39
2022/06/29 00:37:03;;;;;;;4.57;3.22;;;17.00;99.90;;;16.85;100.00;97080.16;4949422;28;20071;-39
2022/06/29 00:39:29;;;;;;;3.13;2.83;;;17.00;99.90;;;16.85;100.00;97080.16;4949536;28;20031;-39
2022/06/29 00:41:55;;;;;;;3.65;3.35;;;17.00;99.90;;;16.83;100.00;97085.59;4950050;28;20042;-39
2022/06/29 00:44:22;;;;;;;3.20;2.85;;;17.00;99.90;;;16.82;100.00;97078.53;4949011;28;20035;-39
2022/06/29 00:46:54;;;;;;;4.00;3.60;;;17.00;99.90;;;16.82;100.00;97075.88;4948760;28;20133;-39
2022/06/29 00:49:22;;;;;;;3.45;3.15;;;17.00;99.90;;;16.82;100.00;97081.22;4952671;28;20404;-39
2022/06/29 00:52:06;;;;;;;3.65;3.13;;;17.00;99.90;;;16.81;100.00;97079.50;4948482;28;20085;-40
2022/06/29 00:54:42;;;;;;;3.80;3.40;;;17.00;99.90;;;16.80;100.00;97075.13;4946149;28;20031;-39
2022/06/29 00:57:27;;;;;;;3.92;3.38;;;17.00;99.90;;;16.77;100.00;97070.00;4951376;28;20084;-39
2022/06/29 00:59:59;;;;;;;4.60;3.28;;;17.00;99.90;;;16.76;100.00;97068.28;4947280;28;20305;-39
2022/06/29 01:02:32;;;;;;;;;;;16.90;99.90;;;16.73;100.00;97072.03;4947868;28;20046;-40
2022/06/29 01:04:58;;;;;;;3.78;3.40;;;16.90;99.90;;;16.72;100.00;97070.31;4947182;28;20045;-40
2022/06/29 01:07:28;;;;;;;4.32;3.50;;;16.90;99.90;;;16.69;100.00;97062.53;4931141;28;20483;-39
2022/06/29 01:09:54;;;;;;;6.45;3.92;;;16.90;99.90;;;16.69;100.00;97064.34;4946225;28;20554;-39
2022/06/29 01:12:21;;;;;;;6.13;3.40;;;16.90;99.90;;;16.68;100.00;97074.13;4945687;28;20639;-39
2022/06/29 01:14:50;;;;;;;3.60;3.30;;;16.90;99.90;;;16.68;100.00;97071.47;4946156;28;20031;-39
2022/06/29 01:17:16;;;;;;;4.53;3.50;;;16.90;99.90;;;16.64;100.00;97069.97;4937458;28;20300;-39
2022/06/29 01:19:43;;;;;;;3.70;3.13;;;16.80;99.90;;;16.63;100.00;97078.06;4949125;28;20035;-40
2022/06/29 01:22:13;;;;;;;5.30;3.50;;;16.80;99.90;;;16.58;100.00;97065.91;4950182;28;20038;-39
2022/06/29 01:24:40;;;;;;;6.10;3.45;;;16.80;99.90;;;16.55;100.00;97076.78;4949246;28;20069;-39
2022/06/29 01:27:06;;;;;;;3.80;3.45;;;16.70;99.90;;;16.50;100.00;97068.22;4952913;28;20083;-39
2022/06/29 01:29:33;;;;;;;3.70;3.40;;;16.70;99.90;;;16.49;100.00;97076.31;4949629;28;20037;-40
2022/06/29 01:31:59;;;;;;;3.63;3.33;;;16.60;99.90;;;16.45;100.00;97069.50;4947830;28;20027;-39
2022/06/29 01:34:27;;;;;;;4.75;3.75;;;16.60;99.90;;;16.42;100.00;97076.72;4950659;28;20483;-39
2022/06/29 01:36:53;;;;;;;3.70;3.33;;;16.60;99.90;;;16.41;100.00;97071.50;4949199;28;20126;-39
2022/06/29 01:39:19;;;;;;;5.25;3.50;;;16.60;99.90;;;16.40;100.00;97078.63;4951418;28;20039;-39
2022/06/29 01:41:45;;;;;;;3.80;3.40;;;16.60;99.90;;;16.37;100.00;97080.66;4930554;28;20134;-39
2022/06/29 01:44:10;;;;;;;4.35;3.50;;;16.50;99.90;;;16.36;100.00;97084.25;4950824;28;20122;-39
2022/06/29 01:46:36;;;;;;;4.18;3.78;;;16.50;99.90;;;16.33;100.00;97082.66;4953374;28;20411;-39
2022/06/29 01:49:03;;;;;;;3.88;3.40;;;16.50;99.90;;;16.36;100.00;97085.09;4951171;28;20066;-39
2022/06/29 01:51:28;;;;;;;4.47;3.58;;;16.50;99.90;;;16.36;100.00;97086.91;4944940;28;20105;-39
2022/06/29 01:53:54;;;;;;;4.20;3.80;;;16.50;99.90;;;16.31;100.00;97083.69;4946712;28;20126;-40
2022/06/29 01:56:20;;;;;;;3.95;3.28;;;16.50;99.90;;;16.33;100.00;97093.31;4939990;28;20499;-39
2022/06/29 01:58:47;;;;;;;4.68;3.60;;;16.50;99.90;;;16.32;100.00;97088.91;4938780;28;20039;-39
2022/06/29 02:01:12;;;;;;;4.47;4.03;;;16.50;99.90;;;16.32;100.00;97090.72;4932960;28;20450;-39
2022/06/29 02:03:39;;;;;;;4.10;3.67;;;16.50;99.90;;;16.32;100.00;97080.09;4942953;28;20038;-40
2022/06/29 02:06:04;;;;;;;4.88;3.70;;;16.50;99.90;;;16.17;100.00;97056.19;4943034;28;20500;-40
2022/06/29 02:08:31;;;;;;;4.13;3.63;;;16.50;99.90;;;16.31;100.00;97073.03;4947128;28;20039;-39
2022/06/29 02:10:59;;;;;;;4.38;3.72;;;16.50;99.90;;;16.29;100.00;97065.16;4945360;28;20027;-39
2022/06/29 02:13:25;;;;;;;4.18;3.72;;;16.50;99.90;;;16.27;100.00;97068.88;4946603;28;20057;-39
2022/06/29 02:15:50;;;;;;;3.92;3.40;;;16.40;99.90;;;16.19;100.00;97069.41;4940671;28;20031;-39
2022/06/29 02:18:16;;;;;;;4.25;3.80;;;16.40;99.90;;;16.21;100.00;97078.97;4946526;28;20483;-39
2022/06/29 02:20:42;;;;;;;3.85;3.45;;;16.40;99.90;;;16.16;100.00;97080.22;4943708;28;20042;-39
2022/06/29 02:23:07;;;;;;;4.47;4.07;;;16.30;99.90;;;16.13;100.00;97075.09;4944615;28;20043;-39
2022/06/29 02:25:33;;;;;;;4.88;3.90;;;16.30;99.90;;;16.08;100.00;97056.78;4945666;28;20039;-40
2022/06/29 02:27:59;;;;;;;4.47;3.75;;;16.20;99.90;;;16.07;100.00;97062.22;4944242;28;20501;-40
2022/06/29 02:34:43;;;;;;;4.45;3.83;;;16.30;99.90;;;15.99;100.00;97047.59;4924707;28;20105;-41
2022/06/29 02:35:55;;;;;;;5.45;3.97;;;16.20;99.90;;;15.94;100.00;97049.69;4944202;28;20046;-40
2022/06/29 02:38:22;;;;;;;4.38;3.97;;;16.20;99.90;;;15.88;100.00;97034.16;4948188;28;20487;-39
2022/06/29 02:40:47;;;;;;;4.35;3.95;;;16.10;99.90;;;15.88;100.00;97043.91;4948158;28;20511;-39
2022/06/29 02:43:13;;;;;;;4.00;3.50;;;16.10;99.90;;;15.84;100.00;97044.13;4950693;28;20096;-40
2022/06/29 02:45:39;;;;;;;4.47;4.07;;;16.10;99.90;;;15.82;100.00;97040.69;4941197;28;20118;-40
2022/06/29 02:48:05;;;;;;;5.05;3.95;;;16.00;99.90;;;15.81;100.00;97040.81;4951000;28;20061;-40
2022/06/29 02:50:30;;;;;;;4.80;4.40;;;16.00;99.90;;;15.61;100.00;97010.13;4944898;28;20778;-40
2022/06/29 02:52:56;;;;;;;4.57;4.18;;;16.00;99.90;;;15.78;100.00;97033.03;4945096;28;20145;-39
2022/06/29 02:55:22;;;;;;;4.10;3.50;;;16.00;99.90;;;15.79;100.00;97030.25;4943411;28;21006;-39
2022/06/29 02:57:47;;;;;;;4.32;3.92;;;16.00;99.90;;;15.78;100.00;97033.84;4951383;28;20142;-40
2022/06/29 03:00:14;;;;;;;5.53;4.20;;;16.00;99.90;;;15.75;100.00;97027.88;4950042;28;20043;-39
2022/06/29 03:02:40;;;;;;;4.30;3.90;;;15.90;99.90;;;15.76;100.00;97034.94;4948356;28;20249;-39
2022/06/29 03:05:07;;;;;;;4.20;3.67;;;16.00;99.90;;;15.76;100.00;97034.94;4931867;28;20103;-40
2022/06/29 03:07:32;;;;;;;4.50;3.88;;;16.00;99.90;;;15.73;100.00;97038.59;4949874;28;20153;-39
2022/06/29 03:09:58;;;;;;;4.50;3.85;;;16.00;99.90;;;15.76;100.00;97041.09;4949096;28;20122;-40
2022/06/29 03:12:24;;;;;;;4.10;3.70;;;15.90;99.90;;;15.77;100.00;97037.50;4949777;28;20031;-39
2022/06/29 03:14:50;;;;;;;5.30;4.13;;;16.00;99.90;;;15.76;100.00;97035.75;4950034;28;20495;-40
2022/06/29 03:17:15;;;;;;;4.22;3.83;;;16.00;99.90;;;15.77;100.00;97040.16;4950142;28;20101;-40
2022/06/29 03:19:41;;;;;;;4.30;3.90;;;16.00;99.90;;;15.79;100.00;97032.03;4947852;28;20393;-39
2022/06/29 03:22:07;;;;;;;4.40;4.00;;;16.00;99.90;;;15.79;100.00;97030.25;4946963;28;20069;-40
2022/06/29 03:24:33;;;;;;;4.45;4.05;;;16.00;99.90;;;15.79;100.00;97037.38;4951288;28;20435;-40
2022/06/29 03:26:59;;;;;;;5.30;4.32;;;16.00;99.90;;;15.78;100.00;97028.53;4946969;28;20322;-40
2022/06/29 03:29:25;;;;;;;4.75;4.28;;;16.00;99.90;;;15.75;100.00;97028.72;4942760;28;20384;-41
2022/06/29 03:31:51;;;;;;;4.90;4.40;;;16.00;99.90;;;15.77;100.00;97034.84;4949757;28;20067;-39
2022/06/29 03:34:17;;;;;;;4.55;4.15;;;16.00;99.90;;;15.76;100.00;97035.75;4949634;28;20086;-40
2022/06/29 03:36:42;;;;;;;4.13;3.75;;;16.00;99.90;;;15.74;100.00;97032.34;4945385;28;20031;-40
2022/06/29 03:39:08;;;;;;;5.03;4.15;;;15.90;99.90;;;15.70;100.00;97035.25;4949436;28;20062;-40
2022/06/29 03:41:34;;;;;;;5.82;4.18;;;15.90;99.90;;;15.71;100.00;97031.66;4947515;28;20031;-39
2022/06/29 03:44:00;;;;;;;3.67;3.38;;;15.90;99.90;;;15.70;100.00;97030.78;4951512;28;20027;-40
2022/06/29 03:46:25;;;;;;;4.15;3.75;;;15.90;99.90;;;15.72;100.00;97023.59;4944336;28;20618;-40
2022/06/29 03:48:51;;;;;;;5.78;4.10;;;15.90;99.90;;;15.72;100.00;97026.25;4945097;28;20030;-40
2022/06/29 03:51:17;;;;;;;4.97;3.97;;;15.90;99.90;;;15.75;100.00;97027.88;4933576;28;20097;-41
2022/06/29 03:53:42;;;;;;;5.90;4.20;;;15.90;99.90;;;15.73;100.00;97021.78;4930772;28;20036;-41
2022/06/29 03:56:08;;;;;;;5.32;4.05;;;16.00;99.90;;;15.79;100.00;97021.41;4949002;28;20029;-41
2022/06/29 03:58:34;;;;;;;5.20;4.50;;;16.00;99.90;;;15.80;100.00;97023.97;4945662;28;20768;-40
2022/06/29 04:00:59;;;;;;;4.50;4.10;;;16.00;99.90;;;15.81;100.00;97020.38;4947073;28;20077;-40
2022/06/29 04:03:25;;;;;;;4.57;4.00;;;16.00;99.90;;;15.83;100.00;97026.44;4946985;28;20102;-41
2022/06/29 04:05:51;;;;;;;4.90;4.05;;;16.10;99.90;;;15.84;100.00;97027.28;4949235;28;20153;-40
2022/06/29 04:08:17;;;;;;;4.78;4.03;;;16.00;99.90;;;15.87;100.00;97026.25;4947895;28;20043;-41
2022/06/29 04:10:43;;;;;;;4.22;3.83;;;16.00;99.90;;;15.87;100.00;97015.63;4948979;28;20051;-41
2022/06/29 04:13:09;;;;;;;4.43;4.03;;;16.10;99.90;;;15.94;100.00;97024.91;4951542;28;20118;-40
2022/06/29 04:15:35;;;;;;;4.65;4.15;;;16.10;99.90;;;15.99;100.00;97023.66;4944308;28;20031;-40
2022/06/29 04:18:02;;;;;;;5.47;3.95;;;16.20;99.90;;;16.04;100.00;97023.34;4954691;28;20061;-40
2022/06/29 04:23:13;;;;;;;4.30;3.90;;;16.30;99.90;;;16.17;100.00;97028.75;4945086;28;20542;-42
2022/06/29 04:25:38;;;;;;;4.63;4.10;;;16.30;99.90;;;16.23;100.00;97033.66;4945870;28;20035;-40
2022/06/29 04:28:06;;;;;;;4.47;4.07;;;16.40;99.90;;;16.29;100.00;97024.41;4947468;28;20491;-41
2022/06/29 04:30:32;;;;;;;5.57;4.65;;;16.50;99.90;;;16.37;100.00;97024.75;4945932;28;20859;-40
2022/06/29 04:32:59;;;;;;;4.95;4.45;;;16.50;99.90;;;16.44;100.00;97023.41;4947235;28;20031;-41
2022/06/29 04:35:24;;;;;;;5.00;4.50;;;16.60;99.90;;;16.53;100.00;97035.25;4947406;28;20094;-41
2022/06/29 04:37:50;;;;;;;4.95;4.40;;;16.70;99.90;;;16.61;100.00;97033.75;4947050;28;20154;-40
2022/06/29 04:40:16;;;;;;;4.75;4.10;;;16.80;99.90;;;16.69;100.00;97038.59;4931536;28;20039;-41
2022/06/29 04:42:41;;;;;;;6.28;4.20;;;16.80;99.90;;;16.75;100.00;97039.97;4948339;28;20501;-41
2022/06/29 04:46:19;;;;;;;7.75;4.72;;;16.90;99.90;;;16.84;100.00;97043.84;4943832;28;20066;-41
2022/06/29 04:47:53;;;;;;;6.70;4.20;;;17.00;99.90;;;16.92;100.00;97036.19;4946636;28;20192;-43
2022/06/29 04:50:19;;;;;;;6.93;5.03;;;17.10;99.90;;;17.00;100.00;97035.69;4943161;28;20081;-43
2022/06/29 04:52:45;;;;;;;6.45;4.00;;;17.10;99.90;;;17.01;100.00;97030.22;4950512;28;20085;-43
2022/06/29 04:55:10;;;;;;;4.22;3.83;;;17.20;99.90;;;17.12;100.00;97034.81;4951822;28;20058;-41
2022/06/29 04:57:36;;;;;;;4.72;4.20;;;17.20;99.90;;;17.15;100.00;97042.59;4954165;28;20065;-43
2022/06/29 05:00:03;;;;;;;5.00;4.38;;;17.30;99.90;;;17.23;100.00;97042.94;4951847;28;20043;-42
2022/06/29 05:02:28;;;;;;;5.65;4.18;;;17.30;99.90;;;17.33;100.00;97033.31;4949583;28;20045;-42
2022/06/29 05:04:54;;;;;;;3.75;3.45;;;17.40;99.90;;;17.67;100.00;97043.41;4955059;28;20027;-42
2022/06/29 05:07:20;;;;;;;3.90;3.50;;;17.60;99.90;;;17.90;100.00;97041.78;4953802;28;20358;-42
2022/06/29 05:09:45;;;;;;;6.53;4.32;;;17.70;99.90;;;18.20;100.00;97033.38;4950198;28;20074;-45
2022/06/29 05:12:11;;;;;;;3.85;3.45;;;17.90;99.90;;;18.84;100.00;97041.09;4953982;28;20035;-42
2022/06/29 05:14:37;;;;;;;3.83;3.33;;;18.30;99.90;;;19.22;100.00;97037.28;4965843;23;20059;-50
2022/06/29 05:17:03;;;;;;;4.55;3.83;;;18.70;99.90;;;19.38;100.00;97033.41;4937975;28;20035;-49
2022/06/29 05:19:29;;;;;;;5.88;3.78;;;18.90;99.90;;;19.35;100.00;97042.53;4943260;28;20031;-48
2022/06/29 05:21:54;;;;;;;4.15;3.45;;;19.00;99.90;;;19.16;100.00;97051.09;4940716;28;20515;-49
2022/06/29 05:24:20;;;;;;;3.85;3.35;;;18.90;99.90;;;18.97;100.00;97050.81;4940126;28;20469;-50
2022/06/29 05:26:46;;;;;;;3.92;3.50;;;18.80;99.90;;;18.78;100.00;97046.84;4934228;28;20038;-49
2022/06/29 05:29:11;;;;;;;3.80;3.40;;;18.70;99.90;;;18.63;100.00;97048.03;4937461;28;20047;-49
2022/06/29 05:31:37;;;;;;;3.90;3.53;;;18.60;99.90;;;18.64;100.00;97049.72;4930962;28;20548;-49
2022/06/29 05:34:03;;;;;;;3.60;3.30;;;18.50;99.90;;;18.79;100.00;97045.03;4934355;28;20527;-53
2022/06/29 05:36:28;;;;;;;3.88;3.58;;;18.60;99.90;;;18.97;100.00;97045.47;4934483;28;20051;-50
2022/06/29 05:38:54;;;;;;;4.93;3.95;;;18.60;99.90;;;19.16;100.00;97044.91;4929120;28;20032;-49
2022/06/29 05:41:20;;;;;;;5.03;4.38;;;18.80;99.90;;;19.39;100.00;97035.94;4929134;28;20039;-48
2022/06/29 05:43:49;;;;;;;9.82;4.93;;;19.00;99.90;;;19.53;100.00;97050.91;4927752;28;20431;-49
2022/06/29 05:46:15;;;;;;;4.88;4.38;;;19.20;99.90;;;19.63;100.00;97043.00;4929618;28;20063;-48
2022/06/29 05:48:41;;;;;;;4.85;4.15;;;19.40;99.90;;;19.67;100.00;97049.84;4932944;28;20043;-47
2022/06/29 05:51:07;;;;;;;7.22;4.57;;;19.50;99.90;;;19.74;100.00;97048.41;4934872;28;20594;-44
2022/06/29 05:53:33;;;;;;;8.23;4.47;;;19.60;99.90;;;19.87;100.00;97050.09;4929131;28;20039;-47
2022/06/29 05:55:58;;;;;;;7.00;4.97;;;19.70;99.90;;;19.99;100.00;97049.97;4927530;28;20026;-51
2022/06/29 05:58:25;;;;;;;5.32;4.60;;;19.90;99.90;;;20.06;100.00;97055.66;4937356;28;20475;-47
2022/06/29 06:00:50;;;;;;;5.75;4.20;;;20.00;99.90;;;20.13;100.00;97051.50;4934444;28;20059;-48
2022/06/29 06:03:17;;;;;;;6.40;4.78;;;20.00;99.90;;;20.19;99.85;97055.53;4929217;29;20070;-47
2022/06/29 06:05:43;;;;;;;5.50;4.88;;;20.10;99.90;;;20.30;98.01;97046.63;4933624;28;20148;-47
2022/06/29 06:08:09;;;;;;;5.93;4.22;;;20.20;99.90;;;20.43;97.69;97047.28;4937802;28;20061;-44
2022/06/29 06:10:35;;;;;;;5.90;4.45;;;20.40;99.90;;;20.58;97.45;97045.16;4927941;28;20035;-49
2022/06/29 06:13:02;;;;;;;6.30;4.22;;;20.50;99.90;;;20.66;95.77;97023.16;4935107;28;20031;-49
2022/06/29 06:15:28;;;;;;;4.97;4.00;;;20.70;99.90;;;20.84;95.50;97044.88;4930599;28;20058;-46
2022/06/29 06:17:54;;;;;;;4.15;3.72;;;20.80;99.90;;;20.91;91.77;97038.00;4927394;28;20637;-48
2022/06/29 06:20:20;;;;;;;4.93;4.25;;;20.90;99.90;;;21.27;91.77;97046.56;4933908;29;20515;-45
2022/06/29 06:22:46;;;;;;;4.90;3.83;;;21.20;99.90;;;21.65;90.95;97050.47;4936297;28;20118;-46
2022/06/29 06:25:11;;;;;;;5.55;4.40;;;21.50;99.90;;;21.91;86.82;97040.97;4938657;28;20126;-49
2022/06/29 06:27:37;;;;;;;5.35;4.50;;;21.90;99.90;;;22.31;84.26;97055.38;4937155;28;20756;-48
2022/06/29 06:30:03;;;;;;;5.00;4.18;;;22.30;99.90;;;22.68;82.45;97050.19;4934047;28;20122;-49
2022/06/29 06:32:29;;;;;;;4.45;3.63;;;22.70;99.90;;;23.10;79.82;97056.28;4933424;28;20035;-48
2022/06/29 06:34:55;;;;;;;5.65;4.28;;;23.00;99.90;;;23.15;72.40;97046.78;4933248;28;20034;-48
2022/06/29 06:37:20;;;;;;;6.10;4.30;;;23.20;99.90;;;23.01;71.87;97041.81;4930544;28;20039;-48
2022/06/29 06:41:21;;;;;;;4.95;3.88;;;23.20;99.90;;;22.87;71.90;97043.94;4931578;28;20039;-49
2022/06/29 06:42:32;;;;;;;4.68;4.15;;;23.00;99.90;;;22.75;71.69;97047.75;4933453;28;20101;-48
2022/06/29 06:44:57;;;;;;;4.28;3.60;;;22.80;99.90;;;22.69;74.06;97043.81;4941272;28;20551;-48
2022/06/29 06:47:23;;;;;;;3.35;3.05;;;22.70;99.90;;;22.69;76.10;97051.03;4935620;28;20038;-48
2022/06/29 06:49:49;;;;;;;7.57;4.15;;;22.70;99.90;;;22.65;75.28;97055.84;4936768;29;20039;-47
2022/06/29 06:52:17;;;;;;;3.90;3.38;;;22.70;99.90;;;22.65;75.94;97053.16;4934209;28;20423;-47
2022/06/29 06:54:44;;;;;;;5.10;3.80;;;22.70;99.90;;;22.47;72.38;97047.63;4943010;28;20035;-45
2022/06/29 06:57:11;;;;;;;3.63;3.20;;;22.60;99.90;;;22.51;74.61;97053.56;4941377;28;20710;-48
2022/06/29 06:59:38;;;;;;;3.78;3.22;;;22.50;99.90;;;22.61;76.06;97049.06;4944075;29;20037;-48
2022/06/29 07:02:03;;;;;;;4.55;3.90;;;22.60;99.90;;;22.53;73.22;97043.50;4946466;28;20027;-48
2022/06/29 07:04:29;;;;;;;4.60;3.50;;;22.60;99.90;;;22.52;74.17;97051.72;4941978;28;20058;-48
2022/06/29 07:06:55;;;;;;;4.00;3.20;;;22.60;99.90;;;22.63;74.77;97052.44;4938783;28;20082;-48
2022/06/29 07:09:21;;;;;;;4.03;3.60;;;22.60;99.90;;;22.74;77.34;97053.28;4942843;29;20063;-47
2022/06/29 07:11:46;;;;;;;3.58;3.22;;;22.70;99.90;;;22.91;76.44;97062.47;4943900;28;20540;-49
2022/06/29 07:14:12;;;;;;;6.38;4.13;;;22.90;99.90;;;22.89;73.05;97059.94;4943614;29;20436;-49
2022/06/29 07:16:38;;;;;;;4.40;4.00;;;22.90;99.90;;;22.91;76.92;97062.47;4945396;28;20510;-48
2022/06/29 07:19:03;;;;;;;6.47;4.93;;;22.90;99.90;;;22.92;77.18;97062.34;4945241;28;20027;-47
2022/06/29 07:21:29;;;;;;;5.05;3.45;;;23.00;99.90;;;22.98;77.87;97055.53;4941751;28;20514;-49
2022/06/29 07:23:58;;;;;;;6.47;4.47;;;23.00;99.90;;;22.98;78.07;97053.69;4945902;28;20039;-47
2022/06/29 07:26:25;;;;;;;4.20;3.72;;;23.00;99.90;;;22.97;77.91;97040.38;4941849;28;20551;-47
2022/06/29 07:28:51;;;;;;;7.13;3.78;;;23.10;99.90;;;23.10;77.77;97050.91;4940698;28;20046;-47
2022/06/29 07:31:17;;;;;;;9.77;4.40;;;23.10;99.90;;;23.14;78.37;97055.84;4941813;28;20031;-48
2022/06/29 07:33:42;;;;;;;7.95;4.68;;;23.20;99.90;;;23.13;76.21;97054.16;4939536;28;20043;-47
2022/06/29 07:36:08;;;;;;;6.13;4.82;;;23.20;99.90;;;23.14;77.36;97053.16;4940193;28;20031;-49
2022/06/29 07:38:35;;;;;;;13.48;4.47;;;23.20;99.90;;;23.27;77.03;97050.16;4942827;29;20381;-49
2022/06/29 07:41:01;;;;;;;7.38;4.13;;;23.30;99.90;;;23.43;77.18;97057.63;4942074;28;20056;-48
2022/06/29 07:43:28;;;;;;;8.18;4.45;;;23.50;99.90;;;23.52;74.50;97054.06;4943138;28;20122;-48
2022/06/29 07:45:57;;;;;;;4.93;4.07;;;23.60;99.90;;;23.60;74.28;97050.66;4935980;28;20066;-47
2022/06/29 07:48:23;;;;;;;7.32;3.88;;;23.70;99.90;;;23.67;74.78;97053.59;4946555;28;20027;-49
2022/06/29 07:50:49;;;;;;;6.43;3.65;;;23.70;99.90;;;23.72;73.82;97060.22;4941355;28;20515;-47
2022/06/29 07:53:15;;;;;;;8.60;5.03;;;23.70;99.90;;;23.68;74.21;97048.06;4941686;28;20043;-49
2022/06/29 07:55:44;;;;;;;7.07;4.88;;;23.70;99.90;;;23.73;75.31;97051.16;4943118;28;20331;-47
2022/06/29 07:58:14;;;;;;;6.38;5.20;;;23.80;99.90;;;23.69;73.78;97043.50;4945047;28;20041;-47
2022/06/29 08:00:41;;;;;;;5.78;4.20;;;23.80;99.90;;;23.78;73.91;97062.34;4940782;28;20463;-44
2022/06/29 08:03:07;;;;;;;7.10;4.32;;;23.80;99.90;;;23.84;74.92;97058.22;4944525;29;20444;-44
2022/06/29 08:05:34;;;;;;;6.45;4.53;;;23.80;99.90;;;23.89;73.96;97057.81;4939408;28;20509;-48
2022/06/29 08:08:00;;;;;;;5.22;4.70;;;23.90;99.90;;;23.86;73.05;97044.63;4944471;29;20042;-47
2022/06/29 08:10:25;;;;;;;7.13;5.50;;;24.00;99.90;;;23.84;71.75;97057.41;4947630;28;20443;-48
2022/06/29 08:12:52;;;;;;;10.25;4.30;;;24.10;99.90;;;23.95;72.84;97051.81;4939913;28;20031;-48
2022/06/29 08:15:19;;;;;;;5.80;4.10;;;24.00;99.90;;;24.08;72.00;97049.59;4941680;28;20111;-47
2022/06/29 08:17:45;;;;;;;9.40;4.65;;;24.10;99.90;;;24.09;69.63;97055.84;4940981;29;20039;-45
2022/06/29 08:20:12;;;;;;;8.20;5.15;;;24.20;99.90;;;24.02;68.50;97053.75;4944205;28;20741;-48
2022/06/29 08:22:38;;;;;;;8.50;4.32;;;24.10;99.90;;;23.89;69.02;97047.88;4944820;29;20035;-48
2022/06/29 08:25:04;;;;;;;5.93;4.07;;;24.00;99.90;;;23.97;70.69;97052.50;4937241;28;20106;-48
2022/06/29 08:27:31;;;;;;;6.00;4.10;;;24.00;99.90;;;24.00;70.95;97050.34;4943338;28;20032;-48
2022/06/29 08:29:57;;;;;;;5.88;4.00;;;24.00;99.90;;;24.03;68.81;97049.22;4940661;28;20396;-48
2022/06/29 08:32:23;;;;;;;3.70;3.20;;;24.10;99.90;;;24.07;70.57;97023.69;4956755;28;20038;-49
2022/06/29 08:34:49;;;;;;;7.00;4.50;;;24.20;99.90;;;24.19;71.31;97045.84;4938134;28;20035;-48
2022/06/29 08:37:15;;;;;;;7.47;3.63;;;24.30;99.90;;;24.32;70.24;97040.13;4944541;29;20049;-45
2022/06/29 08:39:41;;;;;;;7.53;4.78;;;24.30;99.90;;;24.37;70.98;97051.28;4945252;28;20039;-48
2022/06/29 08:42:07;;;;;;;5.57;5.03;;;24.40;99.90;;;24.38;67.76;97042.22;4938758;28;20125;-48
2022/06/29 08:44:36;;;;;;;5.57;4.15;;;24.40;99.90;;;24.63;65.98;97042.50;4942983;28;20058;-48
2022/06/29 08:47:10;;;;;;;5.45;4.35;;;24.60;99.90;;;24.94;66.18;97043.81;4934891;28;20032;-48
2022/06/29 08:49:37;;;;;;;6.32;4.10;;;25.00;99.90;;;25.25;65.12;97043.41;4940480;28;20133;-48
2022/06/29 08:52:08;;;;;;;6.88;3.75;;;25.30;99.90;;;25.50;65.04;97043.53;4939494;28;20122;-48
2022/06/29 08:54:41;;;;;;;5.13;3.80;;;25.60;99.90;;;25.77;63.11;97047.06;4940637;28;20578;-47
2022/06/29 08:57:07;;;;;;;4.05;3.55;;;25.80;99.90;;;25.89;64.40;97040.38;4945952;28;20126;-48
2022/06/29 08:59:37;;;;;;;8.05;5.32;;;26.00;99.90;;;25.83;60.36;97051.84;4942342;29;20031;-48
2022/06/29 09:02:04;;;;;;;7.05;5.32;;;26.00;99.90;;;25.85;62.03;97047.13;4939924;28;20039;-48
2022/06/29 09:04:30;;;;;;;5.93;3.65;;;26.00;99.90;;;25.92;60.73;97031.97;4949408;28;20039;-48
2022/06/29 09:06:57;;;;;;;8.40;4.70;;;26.00;99.90;;;25.88;60.20;97031.44;4939261;28;20034;-48
2022/06/29 09:09:23;;;;;;;8.23;4.22;;;26.00;99.90;;;25.95;64.73;97037.09;4942229;28;20039;-47
2022/06/29 09:11:52;;;;;;;6.97;4.78;;;26.10;99.90;;;26.12;60.93;97035.28;4943929;28;20063;-48
2022/06/29 09:14:22;;;;;;;9.02;5.22;;;26.30;99.90;;;26.35;58.60;97035.53;4940064;28;20086;-49
2022/06/29 09:16:50;;;;;;;7.18;4.30;;;26.60;99.90;;;26.56;54.93;97037.78;4939312;28;20480;-49
2022/06/29 09:19:16;;;;;;;4.60;4.03;;;26.80;99.90;;;26.82;55.43;97037.66;4942218;28;20035;-47
2022/06/29 09:21:47;;;;;;;7.45;4.78;;;27.00;99.90;;;26.82;55.25;97036.84;4937524;28;20570;-48
2022/06/29 09:24:17;;;;;;;7.38;5.30;;;27.20;99.90;;;26.89;55.13;97039.72;4939065;28;20039;-49
2022/06/29 09:26:48;;;;;;;7.22;4.90;;;27.30;99.50;;;27.05;55.10;97039.72;4939058;28;20061;-48
2022/06/29 09:29:30;;;;;;;7.05;4.03;;;27.40;99.10;;;27.06;54.34;97033.28;4944414;28;20074;-48
2022/06/29 09:32:04;;;;;;;4.60;4.00;;;27.40;98.80;;;27.07;55.01;97037.69;4939953;28;20091;-46
2022/06/29 09:34:39;;;;;;;5.90;4.00;;;27.40;99.00;;;27.09;55.72;97037.53;4938623;28;20262;-45
2022/06/29 09:37:21;;;;;;;4.90;4.22;;;27.40;98.90;;;27.12;53.41;97042.59;4944115;28;20050;-48
2022/06/29 09:39:54;;;;;;;4.73;3.80;;;27.50;98.60;;;27.29;54.62;97032.63;4938227;29;20052;-48
2022/06/29 09:42:22;;;;;;;10.35;4.78;;;27.50;98.70;;;27.04;54.63;97038.88;4938931;29;20043;-47
2022/06/29 09:44:48;;;;;;;4.88;3.65;;;27.40;98.20;;;26.72;60.17;97033.44;4935865;29;20043;-48
2022/06/29 09:47:17;;;;;;;4.55;3.60;;;27.10;99.80;;;26.57;63.39;97034.06;4943581;28;20566;-45
2022/06/29 09:49:44;;;;;;;4.22;3.83;;;26.80;99.90;;;26.29;62.29;97038.91;4938104;29;20574;-47
2022/06/29 09:52:11;;;;;;;4.80;4.30;;;26.60;99.90;;;26.15;59.86;97044.91;4938541;29;20031;-47
2022/06/29 09:54:54;;;;;;;5.47;4.28;;;26.40;99.90;;;25.95;59.44;97039.78;4945592;28;20031;-46
2022/06/29 09:57:23;;;;;;;7.65;3.92;;;26.30;99.90;;;25.74;59.08;97048.25;4939240;29;20416;-48
2022/06/29 10:02:45;;;;;;;5.35;3.60;;;26.00;99.90;;;25.58;61.44;97045.47;4938526;29;20047;-49
2022/06/29 10:05:16;;;;;;;4.93;3.72;;;25.80;99.90;;;25.53;62.14;97040.53;4939593;28;20059;-46
2022/06/29 10:07:48;;;;;;;7.30;3.42;;;25.80;99.90;;;25.57;62.10;97038.38;4937703;29;20059;-48
2022/06/29 10:10:17;;;;;;;6.63;3.78;;;25.80;99.90;;;25.59;61.37;97039.03;4941932;29;20066;-48
2022/06/29 10:15:57;;;;;;;7.18;3.63;;;25.80;99.90;;;25.57;62.08;97036.50;4938444;29;20053;-47
2022/06/29 10:18:51;;;;;;;6.65;3.55;;;25.80;99.90;;;25.75;62.17;97032.91;4942019;28;20028;-48
2022/06/29 10:21:25;;;;;;;5.85;3.58;;;25.90;99.90;;;25.89;61.78;97034.97;4940491;29;20041;-49
2022/06/29 10:23:58;;;;;;;4.07;3.15;;;26.10;99.90;;;26.04;60.69;97032.53;4940162;29;21275;-49
2022/06/29 10:26:34;;;;;;;5.30;3.30;;;26.20;99.90;;;26.18;61.15;97039.19;4940754;28;20034;-46